Time;durP1;ratioP1;P1;durP2;ratioP2;P2;SDS_P1;SDS_P2;PMS_P1;PMS_P2;Temp;Humidity;BMP_temperature;BMP_pressure;BME280_temperature;BME280_humidity;BME280_pressure;Samples;Min_cycle;Max_cycle;Signal;HPM_P1;HPM_P2
2022/09/02 00:01:23;;;;;;;3.63;2.20;;;;;;;7.44;75.80;99362.16;5072308;28;20386;-76
2022/09/02 00:03:53;;;;;;;3.05;2.13;;;;;;;7.46;76.30;99377.78;5074020;28;20420;-79
2022/09/02 00:06:21;;;;;;;6.00;2.60;;;;;;;7.42;76.15;99369.13;5074243;28;20057;-77
2022/09/02 00:08:48;;;;;;;6.82;2.33;;;;;;;7.42;76.30;99378.63;5074129;28;20044;-77
2022/09/02 00:11:19;;;;;;;4.13;2.40;;;;;;;7.43;76.32;99378.63;5073764;28;20052;-78
2022/09/02 00:13:48;;;;;;;4.60;2.50;;;;;;;7.38;76.53;99380.34;5074055;28;20075;-78
2022/09/02 00:16:16;;;;;;;3.80;2.40;;;;;;;7.46;76.33;99385.59;5074154;28;20126;-78
2022/09/02 00:18:43;;;;;;;4.72;2.60;;;;;;;7.48;76.16;99389.06;5073633;28;20098;-77
2022/09/02 00:21:13;;;;;;;3.55;1.98;;;;;;;7.59;76.09;99392.63;5056682;28;20420;-78
2022/09/02 00:23:42;;;;;;;2.60;2.20;;;;;;;7.67;75.48;99390.09;5073703;28;20500;-78
2022/09/02 00:26:11;;;;;;;2.28;2.08;;;;;;;7.79;75.31;99392.78;5073801;28;20052;-77
2022/09/02 00:28:39;;;;;;;2.72;2.30;;;;;;;7.90;74.75;99400.66;5073557;28;20519;-78
2022/09/02 00:31:23;;;;;;;5.53;2.08;;;;;;;7.98;74.60;99392.03;5073312;28;20508;-76
2022/09/02 00:33:51;;;;;;;2.55;2.17;;;;;;;8.12;74.26;99384.31;5073475;28;20170;-77
2022/09/02 00:36:18;;;;;;;2.83;2.20;;;;;;;8.25;74.17;99393.06;5072603;28;20079;-77
2022/09/02 00:38:45;;;;;;;2.13;1.92;;;;;;;8.10;73.71;99349.63;5073392;28;20060;-76
2022/09/02 00:41:13;;;;;;;2.78;2.03;;;;;;;8.30;73.08;99380.97;5055538;28;20053;-77
2022/09/02 00:44:00;;;;;;;2.10;1.90;;;;;;;8.36;73.35;99382.69;5073524;28;20500;-77
2022/09/02 00:46:30;;;;;;;5.38;2.00;;;;;;;8.43;73.58;99396.63;5073431;28;20067;-77
2022/09/02 00:49:04;;;;;;;2.30;2.10;;;;;;;8.46;73.07;99384.53;5073303;28;20052;-76
2022/09/02 00:51:45;;;;;;;1.85;1.75;;;;;;;8.50;72.90;99381.06;5055440;28;20090;-77
2022/09/02 00:54:15;;;;;;;1.85;1.67;;;;;;;8.61;72.82;99387.19;5072306;28;20573;-77
2022/09/02 00:56:45;;;;;;;3.95;1.70;;;;;;;8.60;72.59;99392.38;5071434;28;20105;-76
2022/09/02 00:59:17;;;;;;;3.90;1.75;;;;;;;8.65;72.50;99385.47;5054962;28;20416;-76
2022/09/02 01:01:45;;;;;;;3.35;1.70;;;;;;;8.70;72.22;99385.47;5053155;28;20421;-77
2022/09/02 01:04:12;;;;;;;2.80;1.70;;;;;;;8.72;72.64;99389.81;5062446;28;20059;-78
2022/09/02 01:06:39;;;;;;;2.22;1.88;;;;;;;8.80;71.73;99398.53;5073512;28;20105;-78
2022/09/02 01:09:13;;;;;;;2.15;1.85;;;;;;;8.81;71.52;99394.19;5055859;28;20059;-78
2022/09/02 01:11:48;;;;;;;2.95;2.25;;;;;;;8.81;72.10;99386.38;5055967;28;20147;-79
2022/09/02 01:14:15;;;;;;;3.50;2.03;;;;;;;8.76;71.72;99373.34;5073179;28;20059;-79
2022/09/02 01:16:50;;;;;;;2.45;1.90;;;;;;;8.84;71.34;99391.59;5073241;28;20399;-77
2022/09/02 01:19:24;;;;;;;3.90;1.92;;;;;;;8.84;71.37;99393.31;5055579;28;20059;-78
2022/09/02 01:21:56;;;;;;;2.25;2.03;;;;;;;8.68;71.24;99345.53;5071995;28;20098;-77
2022/09/02 01:24:31;;;;;;;3.58;2.00;;;;;;;8.85;70.96;99375.09;5073351;28;20151;-79
2022/09/02 01:26:59;;;;;;;5.38;1.95;;;;;;;8.89;70.85;99391.63;5073294;28;20049;-78
2022/09/02 01:29:27;;;;;;;2.67;1.63;;;;;;;8.96;70.68;99383.81;5072055;28;20082;-78
2022/09/02 01:31:54;;;;;;;1.83;1.48;;;;;;;8.98;70.13;99379.47;5073443;28;20051;-77
2022/09/02 01:34:22;;;;;;;1.55;1.40;;;;;;;8.85;70.45;99366.44;5073110;28;20380;-79
2022/09/02 01:36:50;;;;;;;2.22;1.48;;;;;;;8.89;70.44;99374.25;5071834;28;20049;-78
2022/09/02 01:39:17;;;;;;;2.33;1.60;;;;;;;9.00;69.85;99395.13;5073161;28;20061;-77
2022/09/02 01:41:44;;;;;;;1.90;1.10;;;;;;;9.02;70.20;99391.63;5078326;28;20056;-77
2022/09/02 01:44:15;;;;;;;2.33;1.52;;;;;;;8.81;70.15;99358.59;5083621;28;20133;-78
2022/09/02 01:46:43;;;;;;;4.80;1.98;;;;;;;8.99;70.34;99388.16;5064137;28;20053;-78
2022/09/02 01:49:11;;;;;;;4.47;1.58;;;;;;;8.81;70.32;99352.50;5076017;28;20044;-78
2022/09/02 01:51:40;;;;;;;1.52;1.35;;;;;;;9.02;70.18;99389.03;5072188;28;20464;-79
2022/09/02 01:54:07;;;;;;;4.13;2.50;;;;;;;9.02;70.31;99393.38;5054485;28;20102;-78
2022/09/02 01:56:34;;;;;;;1.58;1.40;;;;;;;9.01;70.44;99397.72;5072404;28;20052;-79
2022/09/02 01:59:02;;;;;;;1.85;1.40;;;;;;;9.02;70.65;99396.84;5054031;28;20450;-79
2022/09/02 02:01:31;;;;;;;2.45;1.30;;;;;;;8.90;70.06;99362.09;5071283;28;20071;-79
2022/09/02 02:03:58;;;;;;;1.48;1.20;;;;;;;9.02;69.98;99402.06;5062785;28;20041;-77
2022/09/02 02:06:26;;;;;;;1.30;1.20;;;;;;;8.92;69.97;99384.66;5052815;28;20425;-77
2022/09/02 02:08:54;;;;;;;1.45;1.30;;;;;;;8.91;70.33;99408.97;5056974;28;20543;-78
2022/09/02 02:11:24;;;;;;;3.47;1.98;;;;;;;8.88;70.09;99388.13;5072177;28;20056;-78
2022/09/02 02:14:01;;;;;;;2.67;1.67;;;;;;;8.78;70.02;99376.81;5072162;28;20102;-78
2022/09/02 02:16:28;;;;;;;2.40;1.50;;;;;;;9.01;70.32;99415.97;5072089;28;20084;-77
2022/09/02 02:18:55;;;;;;;2.15;1.50;;;;;;;8.97;70.00;99413.31;5053488;28;20052;-77
2022/09/02 02:21:22;;;;;;;2.05;1.60;;;;;;;8.90;71.78;99417.66;5071842;28;20048;-78
2022/09/02 02:23:50;;;;;;;1.85;1.48;;;;;;;8.90;71.64;99411.56;5053962;28;20059;-77
2022/09/02 02:26:17;;;;;;;1.63;1.52;;;;;;;8.93;71.97;99427.22;5070903;28;20504;-77
2022/09/02 02:28:54;;;;;;;2.17;1.85;;;;;;;8.81;72.46;99423.69;5053894;28;20057;-77
2022/09/02 02:31:23;;;;;;;3.40;1.95;;;;;;;8.78;73.28;99423.69;5053842;28;20401;-78
2022/09/02 02:33:50;;;;;;;2.38;1.70;;;;;;;8.72;73.44;99425.41;5037669;28;20052;-78
2022/09/02 02:36:18;;;;;;;3.85;1.98;;;;;;;8.72;74.06;99428.88;5075568;28;20058;-77
2022/09/02 02:38:46;;;;;;;3.00;1.77;;;;;;;8.69;73.68;99418.47;5074692;28;20063;-79
2022/09/02 02:41:14;;;;;;;2.03;1.40;;;;;;;8.62;74.11;99414.06;5058045;28;20055;-78
2022/09/02 02:43:42;;;;;;;1.67;1.40;;;;;;;8.56;74.48;99425.34;5057169;28;20428;-77
2022/09/02 02:46:10;;;;;;;2.70;1.80;;;;;;;8.62;74.45;99427.09;5057702;28;20094;-78
2022/09/02 02:48:38;;;;;;;3.03;1.60;;;;;;;8.64;74.87;99425.38;5075295;28;20105;-78
2022/09/02 02:51:06;;;;;;;2.80;1.67;;;;;;;8.44;75.09;99394.06;5065033;28;20052;-78
2022/09/02 02:53:35;;;;;;;3.40;1.70;;;;;;;8.67;75.12;99429.72;5055282;28;20059;-78
2022/09/02 02:56:04;;;;;;;2.53;1.77;;;;;;;8.60;75.76;99441.84;5038290;28;20472;-77
2022/09/02 02:58:31;;;;;;;2.10;1.23;;;;;;;8.60;75.61;99444.44;5038361;28;20099;-77
2022/09/02 03:01:00;;;;;;;1.38;1.27;;;;;;;8.61;75.59;99435.78;5037614;28;20056;-77
2022/09/02 03:03:29;;;;;;;1.33;1.15;;;;;;;8.64;75.13;99424.50;5037331;28;20091;-77
2022/09/02 03:05:57;;;;;;;1.23;1.20;;;;;;;8.81;74.56;99439.31;5037198;28;20081;-78
2022/09/02 03:08:26;;;;;;;1.35;1.10;;;;;;;8.82;74.30;99446.28;5037494;28;20052;-77
2022/09/02 03:10:55;;;;;;;2.15;1.30;;;;;;;8.96;74.07;99450.66;5053543;28;20055;-77
2022/09/02 03:13:25;;;;;;;2.95;0.80;;;;;;;9.11;73.54;99453.31;5037294;28;20126;-77
2022/09/02 03:16:00;;;;;;;2.85;1.00;;;;;;;9.18;72.82;99449.88;5036892;28;20099;-76
2022/09/02 03:18:27;;;;;;;1.23;0.95;;;;;;;9.27;71.49;99459.47;5037189;28;20060;-78
2022/09/02 03:20:56;;;;;;;2.83;0.70;;;;;;;9.28;71.66;99465.53;5036045;28;20052;-77
2022/09/02 03:23:23;;;;;;;1.70;1.17;;;;;;;9.16;72.13;99450.72;5053530;28;20079;-76
2022/09/02 03:25:50;;;;;;;1.65;0.98;;;;;;;9.16;72.03;99440.28;5053500;28;20049;-77
2022/09/02 03:28:32;;;;;;;2.15;1.05;;;;;;;9.39;71.53;99456.00;5036889;28;20059;-78
2022/09/02 03:31:01;;;;;;;0.70;0.70;;;;;;;9.54;70.38;99442.97;5055499;28;20052;-77
2022/09/02 03:33:28;;;;;;;1.30;0.70;;;;;;;9.71;69.32;99427.34;5054579;28;20052;-78
2022/09/02 03:35:56;;;;;;;1.15;0.80;;;;;;;9.93;68.50;99449.06;5036373;28;20048;-77
2022/09/02 03:38:25;;;;;;;1.92;0.80;;;;;;;9.96;67.44;99442.97;5038803;28;20053;-78
2022/09/02 03:40:52;;;;;;;0.70;0.70;;;;;;;9.93;67.47;99451.66;5074410;28;20056;-77
2022/09/02 03:43:22;;;;;;;1.30;0.85;;;;;;;9.95;66.93;99452.53;5056234;28;20058;-77
2022/09/02 03:45:49;;;;;;;1.73;1.33;;;;;;;9.84;67.46;99441.25;5068583;28;20139;-79
2022/09/02 03:48:16;;;;;;;1.20;1.10;;;;;;;9.95;67.56;99451.69;5037064;28;20045;-79
2022/09/02 03:50:46;;;;;;;1.75;0.90;;;;;;;10.02;66.82;99445.56;5035969;28;20053;-79
2022/09/02 03:53:17;;;;;;;0.82;0.60;;;;;;;10.22;65.85;99454.25;5036402;28;20057;-80
2022/09/02 03:55:49;;;;;;;0.73;0.60;;;;;;;10.08;65.85;99449.94;5036538;28;20099;-79
2022/09/02 03:58:19;;;;;;;0.88;0.70;;;;;;;10.04;66.12;99467.31;5059976;28;20051;-77
2022/09/02 04:00:53;;;;;;;1.00;0.60;;;;;;;10.04;66.08;99469.94;5056006;28;20059;-79
2022/09/02 04:03:22;;;;;;;1.20;0.95;;;;;;;10.10;66.46;99469.06;5040506;28;20052;-79
2022/09/02 04:05:51;;;;;;;2.00;0.95;;;;;;;10.05;66.26;99484.72;5035467;28;20049;-78
2022/09/02 04:08:21;;;;;;;2.72;0.90;;;;;;;9.96;67.31;99477.78;5069847;28;20052;-78
2022/09/02 04:10:50;;;;;;;1.20;1.10;;;;;;;9.95;67.34;99478.63;5039811;28;20055;-78
2022/09/02 04:13:18;;;;;;;1.42;1.02;;;;;;;9.90;67.95;99497.78;5054064;28;20053;-78
2022/09/02 04:15:48;;;;;;;1.55;1.08;;;;;;;9.42;68.85;99450.78;5037001;28;20049;-78
2022/09/02 04:18:20;;;;;;;1.40;0.98;;;;;;;9.62;69.02;99493.41;5035841;28;20071;-79
2022/09/02 04:20:49;;;;;;;0.98;0.80;;;;;;;9.50;69.49;99503.81;5036182;28;20048;-80
2022/09/02 04:23:17;;;;;;;1.52;0.90;;;;;;;9.35;68.75;99498.56;5036773;28;20103;-78
2022/09/02 04:25:45;;;;;;;0.50;0.50;;;;;;;9.27;68.33;99492.44;5052745;28;20056;-78
2022/09/02 04:28:15;;;;;;;1.77;0.50;;;;;;;9.18;68.71;99504.63;5036438;28;20140;-77
2022/09/02 04:30:43;;;;;;;0.82;0.80;;;;;;;8.82;68.19;99461.06;5057002;28;20144;-79
2022/09/02 04:33:12;;;;;;;0.60;0.60;;;;;;;9.10;69.22;99511.53;5055256;28;20052;-77
2022/09/02 04:35:42;;;;;;;2.83;0.90;;;;;;;9.14;69.16;99517.59;5073050;28;20056;-78
2022/09/02 04:38:16;;;;;;;2.38;0.95;;;;;;;8.89;69.58;99486.25;5046859;28;20052;-82
2022/09/02 04:40:45;;;;;;;0.70;0.70;;;;;;;8.98;70.01;99511.47;5055792;28;20048;-77
2022/09/02 04:43:14;;;;;;;1.38;0.80;;;;;;;8.95;70.34;99506.25;5055651;28;20048;-81
2022/09/02 04:45:44;;;;;;;1.75;0.82;;;;;;;9.08;69.50;99508.03;5072244;28;20048;-79
2022/09/02 04:48:13;;;;;;;1.52;0.90;;;;;;;9.27;69.38;99508.09;5072372;28;20052;-80
2022/09/02 04:50:41;;;;;;;1.90;0.88;;;;;;;9.52;68.78;99519.47;5072596;28;20542;-79
2022/09/02 04:53:10;;;;;;;1.75;0.90;;;;;;;9.73;68.13;99506.44;5055166;28;20495;-78
2022/09/02 04:55:41;;;;;;;2.55;0.90;;;;;;;9.76;67.84;99513.41;5072378;28;20056;-79
2022/09/02 04:58:10;;;;;;;1.75;1.02;;;;;;;9.79;68.30;99510.81;5055378;28;20075;-79
2022/09/02 05:00:38;;;;;;;1.05;1.05;;;;;;;9.67;67.95;99485.56;5056160;28;20048;-78
2022/09/02 05:03:10;;;;;;;;;;;;;;;9.75;68.42;99511.69;5063441;28;20079;-79
2022/09/02 05:05:39;;;;;;;2.00;1.20;;;;;;;9.82;67.83;99526.47;5079933;28;19960;-78
2022/09/02 05:08:08;;;;;;;1.63;0.95;;;;;;;9.78;67.50;99516.88;5059529;28;20512;-78
2022/09/02 05:10:39;;;;;;;1.20;1.10;;;;;;;9.79;66.65;99514.28;5078428;28;20059;-78
2022/09/02 05:13:06;;;;;;;1.20;1.02;;;;;;;9.86;67.22;99516.91;5079842;28;20143;-80
2022/09/02 05:15:39;;;;;;;0.93;0.93;;;;;;;9.87;66.71;99526.47;5076303;28;20068;-77
2022/09/02 05:18:11;;;;;;;1.55;1.05;;;;;;;9.83;66.81;99520.38;5056996;28;20051;-80
2022/09/02 05:20:41;;;;;;;1.67;0.88;;;;;;;9.95;66.67;99530.81;5039314;28;20053;-78
2022/09/02 05:23:11;;;;;;;1.35;1.05;;;;;;;9.93;66.78;99539.50;5054869;28;20526;-77
2022/09/02 05:25:40;;;;;;;2.33;1.20;;;;;;;9.75;68.15;99541.22;5055237;28;20492;-75
2022/09/02 05:28:09;;;;;;;1.02;0.93;;;;;;;9.72;68.88;99537.75;5073106;28;20101;-76
2022/09/02 05:30:39;;;;;;;1.75;1.10;;;;;;;9.61;69.43;99536.00;5054681;28;20048;-83
2022/09/02 05:33:08;;;;;;;2.10;1.40;;;;;;;9.52;69.92;99503.81;5054259;28;20057;-80
2022/09/02 05:35:41;;;;;;;1.60;1.35;;;;;;;9.84;69.43;99538.63;5070880;28;20106;-79
2022/09/02 05:38:13;;;;;;;2.05;1.20;;;;;;;9.89;68.54;99546.47;5052657;28;20075;-80
2022/09/02 05:40:41;;;;;;;4.30;1.17;;;;;;;9.98;69.09;99543.88;5071076;28;20052;-81
2022/09/02 05:43:08;;;;;;;2.53;1.02;;;;;;;10.03;68.58;99538.66;5053828;28;20444;-79
2022/09/02 05:45:37;;;;;;;1.50;1.40;;;;;;;10.14;68.09;99546.50;5054406;28;20056;-80
2022/09/02 05:49:04;;;;;;;1.55;1.40;;;;;;;10.30;67.18;99536.94;5070919;28;20056;-80
2022/09/02 05:50:53;;;;;;;3.13;1.80;;;;;;;10.53;67.08;99544.75;5051554;28;20400;-80
2022/09/02 05:53:25;;;;;;;1.65;1.50;;;;;;;10.64;66.47;99542.97;5035756;28;20623;-81
2022/09/02 05:55:53;;;;;;;2.35;1.52;;;;;;;10.76;66.43;99542.97;5034811;28;20142;-81
2022/09/02 05:58:21;;;;;;;2.75;1.77;;;;;;;10.59;66.57;99539.53;5018051;28;20056;-79
2022/09/02 06:00:50;;;;;;;1.77;1.67;;;;;;;10.32;67.28;99520.38;5033609;28;20084;-78
2022/09/02 06:03:19;;;;;;;3.15;1.17;;;;;;;10.41;66.97;99551.75;5033781;28;20095;-80
2022/09/02 06:05:56;;;;;;;1.33;1.20;;;;;;;10.27;66.97;99556.06;5052838;28;20053;-81
2022/09/02 06:08:27;;;;;;;1.65;1.25;;;;;;;10.36;66.90;99552.59;5051524;28;20048;-79
2022/09/02 06:10:55;;;;;;;1.98;1.52;;;;;;;10.12;66.57;99536.03;5056012;28;20059;-82
2022/09/02 06:13:25;;;;;;;;;;;;;;;10.15;66.94;99561.25;5039300;28;20084;-80
2022/09/02 06:15:54;;;;;;;3.15;1.58;;;;;;;10.42;66.62;99556.06;5038786;28;20388;-77
2022/09/02 06:18:24;;;;;;;1.40;1.30;;;;;;;10.64;65.66;99561.25;5039018;28;20071;-77
2022/09/02 06:20:54;;;;;;;2.25;1.40;;;;;;;10.80;65.48;99569.97;5056294;28;20076;-79
2022/09/02 06:23:24;;;;;;;2.92;1.70;;;;;;;11.07;64.05;99566.38;5038531;28;20517;-80
2022/09/02 06:25:51;;;;;;;1.10;1.00;;;;;;;10.66;64.13;99533.41;5055217;28;20048;-78
2022/09/02 06:28:19;;;;;;;2.28;1.33;;;;;;;10.65;65.32;99568.25;5038505;28;20087;-80
2022/09/02 06:30:48;;;;;;;1.30;1.20;;;;;;;10.54;66.19;99599.59;5054554;28;20049;-79
2022/09/02 06:33:19;;;;;;;2.83;1.90;;;;;;;10.41;67.77;99605.69;5038721;28;20413;-80
2022/09/02 06:35:48;;;;;;;4.88;2.08;;;;;;;10.12;68.70;99603.91;5054933;28;20495;-80
2022/09/02 06:38:18;;;;;;;4.50;2.20;;;;;;;10.24;69.49;99592.63;5038506;28;20045;-79
2022/09/02 06:40:52;;;;;;;2.95;2.00;;;;;;;10.50;68.50;99584.81;5055010;28;20513;-82
2022/09/02 06:43:27;;;;;;;2.78;1.77;;;;;;;10.96;66.79;99605.63;5063891;28;20056;-80
2022/09/02 06:46:23;;;;;;;2.30;1.77;;;;;;;10.77;66.18;99556.88;5051239;28;20056;-79
2022/09/02 06:48:53;;;;;;;2.60;1.83;;;;;;;10.79;66.37;99607.41;5067053;28;20052;-80
2022/09/02 06:51:32;;;;;;;2.92;1.92;;;;;;;10.83;65.10;99615.22;5058403;28;20049;-81
2022/09/02 06:54:03;;;;;;;3.00;1.67;;;;;;;10.95;64.57;99603.00;5047649;28;20053;-80
2022/09/02 06:56:34;;;;;;;5.32;2.25;;;;;;;10.82;64.84;99599.56;5075219;28;20058;-80
2022/09/02 06:59:03;;;;;;;1.70;1.10;;;;;;;10.70;63.78;99579.53;5057754;28;20044;-81
2022/09/02 07:01:41;;;;;;;2.67;0.98;;;;;;;10.81;63.79;99609.13;5059352;28;20063;-83
2022/09/02 07:06:58;;;;;;;2.90;1.25;;;;;;;11.31;61.73;99614.22;5057321;28;20142;-77
2022/09/02 07:09:30;;;;;;;2.03;1.00;;;;;;;11.76;60.86;99615.78;5057445;28;20553;-77
2022/09/02 07:12:04;;;;;;;1.88;0.80;;;;;;;11.97;58.40;99619.19;5074103;28;20049;-77
2022/09/02 07:14:40;;;;;;;1.88;0.93;;;;;;;12.09;56.90;99613.88;5057493;28;20144;-78
2022/09/02 07:17:11;;;;;;;1.23;0.60;;;;;;;12.36;56.23;99631.13;5069873;28;20052;-77
2022/09/02 07:19:39;;;;;;;1.35;0.70;;;;;;;12.44;55.77;99621.47;5073565;28;20526;-78
2022/09/02 07:22:06;;;;;;;2.53;1.00;;;;;;;12.40;55.96;99632.84;5074835;28;20060;-79
2022/09/02 07:24:40;;;;;;;1.02;0.60;;;;;;;12.26;54.99;99643.44;5060956;28;20076;-78
2022/09/02 07:27:10;;;;;;;3.90;1.40;;;;;;;12.14;56.29;99653.13;5053742;28;20053;-77
2022/09/02 07:29:38;;;;;;;3.67;1.20;;;;;;;11.84;57.43;99650.63;5037185;28;20057;-79
2022/09/02 07:32:05;;;;;;;2.30;0.90;;;;;;;11.53;58.81;99639.44;5036499;28;20053;-79
2022/09/02 07:34:33;;;;;;;1.17;0.90;;;;;;;11.39;59.33;99663.03;5036899;28;20452;-78
2022/09/02 07:37:01;;;;;;;0.60;0.50;;;;;;;11.78;59.15;99666.34;5055364;28;20053;-77
2022/09/02 07:39:36;;;;;;;2.13;1.00;;;;;;;12.09;58.15;99653.16;5055075;28;20061;-79
2022/09/02 07:42:03;;;;;;;0.80;0.70;;;;;;;12.28;58.44;99664.34;5036693;28;20505;-79
2022/09/02 07:44:33;;;;;;;5.28;0.90;;;;;;;12.09;58.61;99654.00;5054865;28;20056;-79
2022/09/02 07:47:00;;;;;;;1.95;0.90;;;;;;;11.87;58.65;99634.91;5054364;28;20061;-79
2022/09/02 07:49:29;;;;;;;1.67;1.00;;;;;;;12.01;59.24;99665.41;5053373;28;20057;-79
2022/09/02 07:52:16;;;;;;;1.30;0.80;;;;;;;12.11;58.62;99653.13;5036892;28;20111;-79
2022/09/02 07:54:44;;;;;;;1.98;1.00;;;;;;;12.34;58.72;99668.69;5055082;28;20095;-80
2022/09/02 07:57:11;;;;;;;1.90;1.10;;;;;;;12.32;58.03;99668.69;5052708;28;20508;-79
2022/09/02 07:59:39;;;;;;;1.63;1.15;;;;;;;12.01;58.56;99634.84;5036599;28;20091;-78
2022/09/02 08:02:34;;;;;;;2.15;1.20;;;;;;;11.87;58.83;99666.34;5036275;28;20071;-80
2022/09/02 08:05:01;;;;;;;4.15;1.20;;;;;;;11.85;59.23;99673.31;5052077;28;20052;-80
2022/09/02 08:07:28;;;;;;;3.08;1.63;;;;;;;11.77;59.13;99661.16;5054089;28;20548;-80
2022/09/02 08:09:56;;;;;;;4.88;1.52;;;;;;;11.83;58.24;99676.78;5054423;28;20088;-80
2022/09/02 08:12:23;;;;;;;1.38;0.93;;;;;;;11.83;58.20;99680.31;5054276;28;20118;-79
2022/09/02 08:14:50;;;;;;;1.08;0.90;;;;;;;11.58;58.78;99668.19;5054978;28;20052;-79
2022/09/02 08:17:17;;;;;;;2.55;1.10;;;;;;;11.61;58.59;99676.88;5053787;28;20083;-81
2022/09/02 08:19:45;;;;;;;1.00;0.90;;;;;;;11.63;57.76;99676.88;5053524;28;20055;-78
2022/09/02 08:22:13;;;;;;;3.08;1.25;;;;;;;11.58;57.97;99704.81;5055534;28;20049;-77
2022/09/02 08:24:40;;;;;;;3.50;1.45;;;;;;;11.52;57.39;99691.75;5053530;28;20068;-78
2022/09/02 08:27:11;;;;;;;2.28;1.30;;;;;;;11.47;57.30;99678.69;5061250;28;20049;-80
2022/09/02 08:29:49;;;;;;;1.88;0.80;;;;;;;11.28;56.25;99608.13;5063571;28;20067;-77
2022/09/02 08:32:27;;;;;;;2.35;1.00;;;;;;;11.80;55.50;99643.66;5057366;28;20128;-78
2022/09/02 08:34:55;;;;;;;3.58;0.73;;;;;;;11.47;55.46;99559.25;5041500;28;20118;-77
2022/09/02 08:37:22;;;;;;;2.95;0.98;;;;;;;12.23;54.35;99680.09;5063813;28;20053;-78
2022/09/02 08:39:49;;;;;;;1.65;1.15;;;;;;;12.48;53.80;99685.19;5062578;28;20061;-77
2022/09/02 08:42:32;;;;;;;2.25;1.23;;;;;;;12.93;52.74;99682.19;5062493;28;20450;-78
2022/09/02 08:45:20;;;;;;;3.72;1.10;;;;;;;12.83;52.44;99656.06;5044343;28;20049;-77
2022/09/02 08:47:52;;;;;;;3.28;1.35;;;;;;;12.98;53.00;99696.16;5065319;28;20044;-78
2022/09/02 08:50:20;;;;;;;1.88;1.35;;;;;;;12.46;52.94;99658.13;5052851;28;20092;-77
2022/09/02 08:53:08;;;;;;;6.85;4.40;;;;;;;12.62;53.18;99713.91;5062126;28;20048;-79
2022/09/02 08:55:49;;;;;;;17.75;10.00;;;;;;;12.64;53.66;99714.75;5064544;28;20664;-77
2022/09/02 08:58:19;;;;;;;10.57;5.60;;;;;;;12.82;53.71;99718.97;5073100;28;20052;-78
2022/09/02 09:00:51;;;;;;;;;;;;;;;12.73;54.61;99716.44;5072835;28;20159;-78
2022/09/02 09:03:29;;;;;;;11.38;5.43;;;;;;;13.02;53.73;99709.22;5072389;28;20388;-77
2022/09/02 09:06:24;;;;;;;15.93;7.03;;;;;;;13.48;52.32;99661.53;5072356;28;20504;-78
2022/09/02 09:09:31;;;;;;;14.85;7.40;;;;;;;14.13;50.63;99713.22;5072345;28;20048;-77
2022/09/02 09:12:36;;;;;;;3.15;2.55;;;;;;;14.05;50.10;99702.84;5038703;28;20066;-77
2022/09/02 09:15:27;;;;;;;1.70;1.20;;;;;;;13.92;48.82;99720.53;5021688;28;20058;-77
2022/09/02 09:18:01;;;;;;;5.75;1.15;;;;;;;13.78;49.13;99692.69;5071707;28;20704;-79
2022/09/02 09:20:36;;;;;;;1.27;0.90;;;;;;;13.88;48.73;99717.97;5071013;28;20053;-77
2022/09/02 09:23:36;;;;;;;1.15;0.82;;;;;;;13.65;49.31;99719.09;5072386;28;20076;-76
2022/09/02 09:26:04;;;;;;;3.75;0.80;;;;;;;13.82;49.56;99724.13;5072194;28;20056;-77
2022/09/02 09:28:39;;;;;;;1.85;0.80;;;;;;;14.04;48.58;99719.47;5072939;28;20052;-78
2022/09/02 09:31:13;;;;;;;2.90;1.17;;;;;;;14.21;48.27;99742.03;5072761;28;20582;-79
2022/09/02 09:34:03;;;;;;;3.60;2.13;;;;;;;14.26;48.46;99740.22;5073076;28;20120;-78
2022/09/02 09:36:43;;;;;;;3.03;1.10;;;;;;;14.26;48.72;99748.09;5073123;28;20397;-79
2022/09/02 09:39:30;;;;;;;1.75;1.08;;;;;;;14.17;48.61;99738.56;5073219;28;20074;-79
2022/09/02 09:42:10;;;;;;;5.22;1.30;;;;;;;14.04;48.74;99737.00;5073120;28;20052;-80
2022/09/02 09:44:37;;;;;;;0.73;0.52;;;;;;;14.23;48.27;99745.50;5071802;28;20052;-81
2022/09/02 09:47:08;;;;;;;1.50;0.70;;;;;;;14.18;47.90;99731.59;5072420;28;20113;-76
2022/09/02 09:49:39;;;;;;;1.50;0.80;;;;;;;14.29;48.12;99753.31;5072737;28;20060;-80
2022/09/02 09:52:06;;;;;;;1.55;0.88;;;;;;;14.57;48.03;99752.97;5055109;28;20519;-79
2022/09/02 09:54:34;;;;;;;0.77;0.43;;;;;;;14.87;47.37;99749.00;5072106;28;20059;-80
2022/09/02 09:57:18;;;;;;;1.45;1.10;;;;;;;15.21;46.39;99751.03;5073058;28;20052;-77
2022/09/02 09:59:55;;;;;;;3.10;1.50;;;;;;;15.07;46.69;99744.25;5072840;28;20044;-79
2022/09/02 10:02:25;;;;;;;6.00;3.58;;;;;;;14.63;46.52;99745.00;5053607;28;20527;-78
2022/09/02 10:05:25;;;;;;;4.43;2.55;;;;;;;14.17;47.35;99745.59;5073158;28;20131;-79
2022/09/02 10:07:56;;;;;;;3.30;1.30;;;;;;;13.94;47.77;99759.91;5047365;28;20055;-80
2022/09/02 10:10:26;;;;;;;3.95;0.77;;;;;;;13.67;47.87;99738.31;5073563;28;20515;-77
2022/09/02 10:12:58;;;;;;;0.75;0.60;;;;;;;13.60;47.95;99769.91;5072890;28;20048;-81
2022/09/02 10:15:34;;;;;;;4.95;1.08;;;;;;;13.45;48.41;99752.56;5073016;28;20048;-82
2022/09/02 10:18:21;;;;;;;5.10;1.83;;;;;;;13.38;49.02;99774.47;5075920;28;20148;-78
2022/09/02 10:21:30;;;;;;;2.33;0.85;;;;;;;13.55;48.75;99761.19;5077493;28;20139;-78
2022/09/02 10:24:19;;;;;;;3.97;1.25;;;;;;;13.84;47.84;99761.75;5047969;28;20425;-81
2022/09/02 10:26:57;;;;;;;1.52;1.02;;;;;;;13.71;47.61;99739.16;5075708;28;20496;-77
2022/09/02 10:29:40;;;;;;;2.78;1.00;;;;;;;13.69;47.71;99770.66;5076636;28;20051;-79
2022/09/02 10:32:10;;;;;;;6.47;4.18;;;;;;;13.94;47.39;99778.28;5074104;28;20469;-77
2022/09/02 10:35:09;;;;;;;8.23;4.35;;;;;;;14.12;46.92;99788.53;5075196;28;20084;-78
2022/09/02 10:37:55;;;;;;;7.10;3.15;;;;;;;14.30;46.75;99790.09;5072812;28;20504;-77
2022/09/02 10:40:27;;;;;;;4.80;2.17;;;;;;;14.19;47.71;99784.06;5072059;28;20507;-76
2022/09/02 10:43:05;;;;;;;2.70;1.77;;;;;;;14.51;47.76;99793.31;5073344;28;20045;-76
2022/09/02 10:45:45;;;;;;;4.47;1.60;;;;;;;14.60;47.96;99798.44;5072164;28;20131;-76
2022/09/02 10:48:25;;;;;;;5.78;0.88;;;;;;;14.65;46.71;99783.50;5059265;28;20385;-79
2022/09/02 10:51:04;;;;;;;1.88;1.00;;;;;;;14.65;45.58;99798.41;5052399;28;20128;-79
2022/09/02 10:54:00;;;;;;;2.00;0.98;;;;;;;14.57;45.79;99785.38;5051694;28;20077;-76
2022/09/02 10:56:34;;;;;;;2.70;0.70;;;;;;;14.61;44.49;99787.06;5065554;28;20056;-79
2022/09/02 10:59:10;;;;;;;0.63;0.57;;;;;;;13.85;45.11;99707.47;5076778;28;20056;-80
2022/09/02 11:01:49;;;;;;;0.68;0.60;;;;;;;14.02;44.80;99781.66;5056734;28;20144;-75
2022/09/02 11:04:36;;;;;;;1.13;0.60;;;;;;;13.84;45.18;99781.88;5038935;28;20077;-78
2022/09/02 11:07:06;;;;;;;5.70;2.92;;;;;;;13.61;45.53;99780.38;5055572;28;20087;-78
2022/09/02 11:09:38;;;;;;;6.75;3.20;;;;;;;13.65;46.37;99815.34;5056006;28;20071;-77
2022/09/02 11:12:24;;;;;;;5.07;3.03;;;;;;;13.51;47.17;99826.84;5055348;28;20413;-79
2022/09/02 11:15:18;;;;;;;1.48;1.17;;;;;;;13.69;48.30;99835.41;5055629;28;20049;-77
2022/09/02 11:18:00;;;;;;;1.15;0.70;;;;;;;14.18;48.32;99827.00;5055295;28;20059;-78
2022/09/02 11:20:34;;;;;;;5.50;1.40;;;;;;;14.16;48.96;99828.78;5057257;28;20051;-80
2022/09/02 11:23:07;;;;;;;2.83;2.08;;;;;;;13.81;49.11;99834.41;5074942;28;20139;-79
2022/09/02 11:25:51;;;;;;;3.75;2.10;;;;;;;13.32;49.72;99806.91;5075242;28;20136;-79
2022/09/02 11:28:29;;;;;;;4.72;2.40;;;;;;;13.66;49.79;99841.56;5074741;28;20193;-78
2022/09/02 11:31:34;;;;;;;6.68;2.60;;;;;;;13.97;48.71;99838.63;5057503;28;20049;-78
2022/09/02 11:34:46;;;;;;;6.85;3.58;;;;;;;14.25;47.83;99851.44;5034239;28;20052;-78
2022/09/02 11:37:29;;;;;;;0.82;0.52;;;;;;;14.46;46.18;99843.31;5071038;28;20053;-76
2022/09/02 11:40:02;;;;;;;1.17;0.60;;;;;;;14.62;45.96;99846.63;5058488;28;20094;-78
2022/09/02 11:43:14;;;;;;;1.90;0.80;;;;;;;14.79;44.71;99846.41;5070080;28;20045;-78
2022/09/02 11:45:55;;;;;;;2.83;0.60;;;;;;;14.84;44.81;99841.06;5063513;28;20048;-79
2022/09/02 11:48:38;;;;;;;2.88;0.90;;;;;;;14.85;44.38;99855.97;5072004;28;20143;-77
2022/09/02 11:51:15;;;;;;;5.05;1.00;;;;;;;14.72;44.60;99860.53;5081164;28;20153;-78
2022/09/02 11:53:45;;;;;;;2.40;0.85;;;;;;;14.66;44.66;99856.22;5060003;28;20115;-79
2022/09/02 11:56:20;;;;;;;2.33;0.80;;;;;;;14.49;45.33;99874.78;5074843;28;20074;-78
2022/09/02 11:58:51;;;;;;;1.50;0.77;;;;;;;14.42;45.74;99864.38;5074914;28;20060;-79
2022/09/02 12:01:37;;;;;;;0.97;0.60;;;;;;;14.43;46.05;99869.63;5074930;28;20048;-80
2022/09/02 12:04:12;;;;;;;3.42;0.88;;;;;;;14.59;45.37;99869.47;5074427;28;20048;-78
2022/09/02 12:07:05;;;;;;;0.82;0.60;;;;;;;14.75;45.09;99871.00;5073656;28;20052;-80